NEODyS-2

Near Earth Objects - Dynamic Site
NEODyS ∴ Observatories ∴ Site 691 ∴ Obs & residuals
Contact »
691  ▹ 
OBSERVATIONS AND RESIDUALS

691-Steward Observatory, Kitt Peak-Spacewatch

Detections | Residuals | Detections & Residuals

[1-200] [201-400] [401-600] [601-800] [801-1000] [1001-1200] [1201-1400] [1401-1600] [1601-1800] [1801-2000] [2001-2200] [2201-2400] [2401-2600] [2601-2800] [2801-3000] [3001-3200] [3201-3400] [3401-3600] [3601-3800] [3801-4000] [4001-4200] [4201-4400] [4401-4600] [4601-4800] [4801-5000] [5001-5200] [5201-5400] [5401-5600] [5601-5800] [5801-6000] [6001-6200] [6201-6400] [6401-6600] [6601-6800] [6801-7000] [7001-7200] [7201-7400] [7401-7600] [7601-7800] [7801-8000] [8001-8200] [8201-8400] [8401-8600] [8601-8800] [8801-9000] [9001-9200] [9201-9400] [9401-9600] [9601-9800] [9801-10000] [10001-10200] [10201-10400] [10401-10600] [10601-10800] [10801-11000] [11001-11200] [11201-11400] [11401-11600] [11601-11800] [11801-12000] [12001-12200] [12201-12400] [12401-12600] [12601-12800] [12801-13000] [13001-13200] [13201-13400] [13401-13600] [13601-13800] [13801-14000] [14001-14200] [14201-14400] [14401-14600] [14601-14800] [14801-15000] [15001-15200] [15201-15400] [15401-15600] [15601-15800] [15801-16000] [16001-16200] [16201-16400] [16401-16600] [16601-16800] [16801-17000] [17001-17200] [17201-17400] [17401-17600] [17601-17800] [17801-18000] [18001-18200] [18201-18400] [18401-18600] [18601-18800] [18801-19000] [19001-19200] [19201-19400] [19401-19600] [19601-19800] [19801-20000] [20001-20200] [20201-20400] [20401-20600] [20601-20800] [20801-21000] [21001-21200] [21201-21400] [21401-21600] [21601-21800] [21801-22000] [22001-22200] [22201-22400] [22401-22600] [22601-22800] [22801-23000] [23001-23200] [23201-23400] [23401-23600] [23601-23800] [23801-24000] [24001-24200] [24201-24400] [24401-24600] [24601-24800] [24801-25000] [25001-25200] [25201-25400] [25401-25600] [25601-25800] [25801-26000] [26001-26200] [26201-26400] [26401-26600] [26601-26800] [26801-27000] [27001-27200] [27201-27400] [27401-27600] [27601-27800] [27801-28000] [28001-28200] [28201-28400] [28401-28600] [28601-28800] [28801-29000] [29001-29200] [29201-29400] [29401-29600] [29601-29800] [29801-30000] [30001-30200] [30201-30400] [30401-30600] [30601-30800] [30801-31000] [31001-31200] [31201-31400] [31401-31600] [31601-31800] [31801-32000] [32001-32200] [32201-32400] [32401-32600] [32601-32800] [32801-33000] [33001-33200] [33201-33400] [33401-33600] [33601-33800] [33801-34000] [34001-34200] [34201-34400] [34401-34600] [34601-34800] [34801-35000] [35001-35200] [35201-35400] [35401-35600] [35601-35800] [35801-36000] [36001-36200] [36201-36400] [36401-36600] [36601-36800] [36801-37000] [37001-37200] [37201-37400] [37401-37600] [37601-37800] [37801-38000] [38001-38200] [38201-38400] [38401-38600] [38601-38800] [38801-39000] [39001-39200] [39201-39400] [39401-39600] [39601-39800] [39801-40000] [40001-40200] [40201-40400] [40401-40600] [40601-40800] [40801-41000] [41001-41200] [41201-41400] [41401-41600] [41601-41800] [41801-42000] [42001-42200] [42201-42400] [42401-42600] [42601-42800] [42801-43000] [43001-43200] [43201-43400] [43401-43600] [43601-43800] [43801-44000] [44001-44200] [44201-44400] [44401-44600] [44601-44800] [44801-45000] [45001-45200] [45201-45400] [45401-45600] [45601-45800] [45801-46000] [46001-46200] [46201-46400] [46401-46600] [46601-46800] [46801-47000] [47001-47200] [47201-47400] [47401-47600] [47601-47800] [47801-48000] [48001-48200] [48201-48400] [48401-48600] [48601-48800] [48801-49000] [49001-49200] [49201-49400] [49401-49600] [49601-49800] [49801-50000] [50001-50200] [50201-50388]

Designation T Tech N Date Right Ascension Declination Apparent Magnitude Star Catalog Site code χ Used A Used M
yr-mo-day precision hr:min:sec precision rms F bias residual deg min sec precision rms F bias residual mag/col rms residual
2019VT2 O C 2019-11-18.16127 1.000E-05 01:51:25.140 1.500E-01 0.500 F -0.294 0.444 +01° 41' 48.10" 1.000E-01 0.500 F 0.264 -0.153 20.1 V 0.70 -0.24 o 691 0.96 Yes Yes
2019VV O C K 2019-11-18.17094 1.000E-05 02:11:04.440 1.500E-01 0.500 F -0.321 0.038 +14° 41' 45.80" 1.000E-01 0.500 F 0.264 -0.295 21.1 R 0.70 0.45 o 691 0.59 Yes Yes
2019VV O C K 2019-11-18.17822 1.000E-05 02:11:03.250 1.500E-01 0.500 F -0.321 -0.025 +14° 41' 37.60" 1.000E-01 0.500 F 0.264 -0.388 20.7 R 0.70 0.05 o 691 0.78 Yes Yes
2019VJ5 O C K 2019-11-18.21556 1.000E-05 04:25:54.410 1.500E-01 0.500 F -0.079 0.073 -14° 01' 53.40" 1.000E-01 0.500 F 0.092 0.018 20.1 R 0.70 -0.15 o 691 0.15 Yes Yes
2019QT8 O C 2019-11-18.22064 1.000E-05 03:55:56.440 1.500E-01 0.500 F -0.181 -0.331 -03° 54' 27.00" 1.000E-01 0.500 F 0.225 0.067 19.2 V 0.70 0.61 o 691 0.68 Yes Yes
2019VJ5 O C K 2019-11-18.22228 1.000E-05 04:25:53.590 1.500E-01 0.500 F -0.079 -0.798 -14° 01' 37.80" 1.000E-01 0.500 F 0.092 0.173 20.3 R 0.70 0.05 o 691 1.69 Yes Yes
2019QT8 O C 2019-11-18.22737 1.000E-05 03:55:55.920 1.500E-01 0.500 F -0.181 -0.415 -03° 54' 02.60" 1.000E-01 0.500 F 0.225 -0.151 19.3 V 0.70 0.71 o 691 0.89 Yes Yes
2019VJ5 O C K 2019-11-18.22901 1.000E-05 04:25:52.890 1.500E-01 0.500 F -0.079 0.207 -14° 01' 22.70" 1.000E-01 0.500 F 0.092 -0.216 20.0 R 0.70 -0.25 o 691 0.63 Yes Yes
2019QT8 O C 2019-11-18.23409 1.000E-05 03:55:55.400 1.500E-01 0.500 F -0.181 -0.491 -03° 53' 37.70" 1.000E-01 0.500 F 0.225 0.164 19.2 V 0.70 0.61 o 691 1.04 Yes Yes
2019VB4 O C K 2019-11-18.27195 1.000E-05 03:14:59.570 1.500E-01 0.500 F -0.232 -0.334 +19° 12' 41.30" 1.000E-01 0.500 F 0.320 0.906 20.7 R 0.70 0.08 o 691 1.99 Yes Yes
2019UG7 O C 2019-11-18.27613 1.000E-05 04:13:38.110 1.500E-01 0.500 F -0.316 -0.686 +14° 05' 11.80" 1.000E-01 0.500 F 0.073 -0.024 20.3 V 0.70 -0.12 o 691 1.38 Yes Yes
2019UG7 O C 2019-11-18.28611 1.000E-05 04:13:38.690 1.500E-01 0.500 F -0.316 -0.177 +14° 04' 59.80" 1.000E-01 0.500 F 0.073 0.368 20.6 V 0.70 0.18 o 691 0.82 Yes Yes
2019VB4 O C K 2019-11-18.28789 1.000E-05 03:14:56.300 1.500E-01 0.500 F -0.232 -0.064 +19° 13' 52.20" 1.000E-01 0.500 F 0.320 0.435 21.4 R 0.70 0.78 o 691 0.91 Yes Yes
2019UG7 O C 2019-11-18.29426 1.000E-05 04:13:39.120 1.500E-01 0.500 F -0.316 -0.378 +14° 04' 49.10" 1.000E-01 0.500 F 0.073 -0.194 20.4 V 0.70 -0.02 o 691 0.85 Yes Yes
2019UX13 O C K 2019-11-18.29835 1.000E-05 05:46:20.860 1.500E-01 0.500 F -0.009 -0.178 -13° 12' 38.30" 1.000E-01 0.500 F 0.077 -0.173 o 691 0.50 Yes No
2019UL13 O C K 2019-11-18.30915 1.000E-05 05:07:36.940 1.500E-01 0.500 F -0.118 -0.121 +22° 02' 45.00" 1.000E-01 0.500 F 0.257 0.037 19.4 R 0.70 -0.24 o 691 0.25 Yes Yes
2019UX13 O C K 2019-11-18.31244 1.000E-05 05:46:19.440 1.500E-01 0.500 F -0.009 0.038 -13° 12' 49.00" 1.000E-01 0.500 F 0.077 0.341 21.0 R 0.70 0.15 o 691 0.69 Yes Yes
2019UL13 O C K 2019-11-18.32320 1.000E-05 05:07:33.540 1.500E-01 0.500 F -0.118 -0.074 +22° 03' 30.90" 1.000E-01 0.500 F 0.257 -0.032 19.6 R 0.70 -0.04 o 691 0.16 Yes Yes
2019UX13 O C K 2019-11-18.32648 1.000E-05 05:46:18.010 1.500E-01 0.500 F -0.009 0.115 -13° 13' 00.50" 1.000E-01 0.500 F 0.077 -0.028 21.4 R 0.70 0.55 o 691 0.24 Yes Yes
2019UL13 O C K 2019-11-18.33723 1.000E-05 05:07:30.140 1.500E-01 0.500 F -0.118 -0.022 +22° 04' 16.70" 1.000E-01 0.500 F 0.257 -0.065 19.3 R 0.70 -0.33 o 691 0.14 Yes Yes
2019UK13 O C K 2019-11-18.34387 1.000E-05 02:40:22.480 1.500E-01 0.500 F -0.127 0.160 +31° 27' 22.10" 1.000E-01 0.500 F 0.258 -0.008 o 691 0.33 Yes No
2019UK13 O C K 2019-11-18.34989 1.000E-05 02:40:23.330 1.500E-01 0.500 F -0.127 -0.119 +31° 27' 03.60" 1.000E-01 0.500 F 0.258 -0.326 19.8 R 0.70 -0.29 o 691 0.70 Yes Yes
2019UK13 O C K 2019-11-18.35592 1.000E-05 02:40:24.220 1.500E-01 0.500 F -0.127 0.033 +31° 26' 45.50" 1.000E-01 0.500 F 0.258 -0.161 20.2 R 0.70 0.11 o 691 0.33 Yes Yes
2019VH5 O C 2019-11-18.37218 1.000E-05 03:48:36.220 1.500E-01 0.500 F -0.193 -1.128 +12° 46' 35.20" 1.000E-01 0.500 F 0.212 -0.272 19.8 V 0.70 0.29 o 691 2.33 Yes Yes
2019VH5 O C 2019-11-18.38390 1.000E-05 03:48:33.140 1.500E-01 0.500 F -0.193 -0.332 +12° 46' 37.10" 1.000E-01 0.500 F 0.212 0.157 20.0 V 0.70 0.49 o 691 0.74 Yes Yes
2019VH5 O C 2019-11-18.39441 1.000E-05 03:48:30.340 1.500E-01 0.500 F -0.193 -0.251 +12° 46' 38.40" 1.000E-01 0.500 F 0.212 0.192 19.8 V 0.70 0.29 o 691 0.63 Yes Yes
2019RH1 O C K 2019-11-18.42313 1.000E-05 05:29:31.050 1.500E-01 0.500 F 0.036 -0.034 +07° 01' 02.30" 1.000E-01 0.500 F 0.189 -0.381 21.2 R 0.70 -0.02 o 691 0.77 Yes Yes
2019RH1 O C K 2019-11-18.44109 1.000E-05 05:29:31.710 1.500E-01 0.500 F 0.036 0.230 +07° 01' 07.10" 1.000E-01 0.500 F 0.189 0.032 21.0 R 0.70 -0.22 o 691 0.47 Yes Yes
2019KG4 O C K 2019-11-18.46536 1.000E-05 04:06:52.650 1.500E-01 0.500 F -0.254 -0.268 +14° 27' 53.00" 1.000E-01 0.500 F 0.170 -0.309 20.7 R 0.70 0.24 o 691 0.83 Yes Yes
2019KG4 O C K 2019-11-18.47501 1.000E-05 04:06:51.800 1.500E-01 0.500 F -0.254 0.184 +14° 27' 37.50" 1.000E-01 0.500 F 0.170 0.532 20.4 R 0.70 -0.06 o 691 1.15 Yes Yes
2019SH6 O C H 2019-11-18.49308 1.000E-05 05:51:26.870 1.500E-01 0.500 F -0.051 0.026 -04° 20' 13.10" 1.000E-01 0.500 F 0.029 0.043 18.5 R 0.70 -0.05 o 691 0.10 Yes Yes
2018VB4 O C K 2019-11-18.49439 1.000E-05 05:14:41.650 1.500E-01 0.500 F -0.097 -0.067 -08° 47' 54.80" 1.000E-01 0.500 F 0.197 0.155 21.5 R 0.70 0.66 o 691 0.34 Yes Yes
2019SH6 O C H 2019-11-18.50428 1.000E-05 05:51:28.720 1.500E-01 0.500 F -0.051 0.270 -04° 20' 18.40" 1.000E-01 0.500 F 0.029 -0.006 18.7 R 0.70 0.15 o 691 0.54 Yes Yes
2018VB4 O C K 2019-11-18.50559 1.000E-05 05:14:40.020 1.500E-01 0.500 F -0.097 0.036 -08° 48' 29.80" 1.000E-01 0.500 F 0.197 -0.234 o 691 0.48 Yes No
2019SH6 O C H 2019-11-18.51548 1.000E-05 05:51:30.550 1.500E-01 0.500 F -0.051 0.119 -04° 20' 23.70" 1.000E-01 0.500 F 0.029 -0.066 18.4 R 0.70 -0.15 o 691 0.27 Yes Yes
2019UO O C 2019-11-19.13759 1.000E-05 23:42:40.550 1.500E-01 0.500 F -0.128 0.216 +20° 23' 10.70" 1.000E-01 0.500 F 0.330 -0.417 o 691 0.94 Yes No
2019UO O C 2019-11-19.13984 1.000E-05 23:42:40.310 1.500E-01 0.500 F -0.128 -0.198 +20° 23' 08.90" 1.000E-01 0.500 F 0.330 -0.571 o 691 1.21 Yes No
2019UO O C 2019-11-19.14208 1.000E-05 23:42:40.110 1.500E-01 0.500 F -0.128 -0.062 +20° 23' 07.60" 1.000E-01 0.500 F 0.330 -0.230 o 691 0.48 Yes No
2019SZ2 O C 2019-11-19.20385 1.000E-05 01:27:09.350 1.500E-01 0.500 F -0.172 0.015 +01° 46' 19.60" 1.000E-01 0.500 F 0.283 -0.270 19.8 V 0.70 0.40 o 691 0.54 Yes Yes
2019SZ2 O C 2019-11-19.21005 1.000E-05 01:27:09.880 1.500E-01 0.500 F -0.172 -0.156 +01° 46' 01.40" 1.000E-01 0.500 F 0.283 -0.035 19.8 V 0.70 0.40 o 691 0.32 Yes Yes
2019SZ2 O C 2019-11-19.21625 1.000E-05 01:27:10.360 1.500E-01 0.500 F -0.172 -1.076 +01° 45' 39.70" 1.000E-01 0.500 F 0.283 -3.304 19.3 V 0.70 -0.10 o 691 6.93 No Yes
2019VT2 O C K 2019-11-19.24757 1.000E-05 01:47:09.660 1.500E-01 0.500 F -0.262 0.079 -01° 01' 39.90" 1.000E-01 0.500 F 0.256 -0.332 19.9 R 0.70 -0.09 o 691 0.70 Yes Yes
2019VT2 O C K 2019-11-19.25083 1.000E-05 01:47:08.770 1.500E-01 0.500 F -0.262 0.056 -01° 02' 08.80" 1.000E-01 0.500 F 0.256 0.595 19.5 R 0.70 -0.49 o 691 1.23 Yes Yes
2019VT2 O C K 2019-11-19.25409 1.000E-05 01:47:07.890 1.500E-01 0.500 F -0.262 0.178 -01° 02' 39.80" 1.000E-01 0.500 F 0.256 -0.577 o 691 1.24 Yes No
2019UK13 O C 2019-11-19.25970 1.000E-05 02:43:09.260 1.500E-01 0.500 F -0.089 -0.281 +30° 43' 42.00" 1.000E-01 0.500 F 0.292 0.049 20.4 V 0.70 -0.11 o 691 0.57 Yes Yes
2019UK13 O C 2019-11-19.26497 1.000E-05 02:43:09.980 1.500E-01 0.500 F -0.089 -0.171 +30° 43' 26.50" 1.000E-01 0.500 F 0.292 -0.416 20.4 V 0.70 -0.11 o 691 0.91 Yes Yes
2019UK13 O C 2019-11-19.27024 1.000E-05 02:43:10.690 1.500E-01 0.500 F -0.089 -0.189 +30° 43' 11.70" 1.000E-01 0.500 F 0.292 -0.136 20.1 V 0.70 -0.41 o 691 0.46 Yes Yes
2019VB4 O C K 2019-11-19.27461 1.000E-05 03:12:18.420 1.500E-01 0.500 F -0.203 -0.097 +20° 25' 27.90" 1.000E-01 0.500 F 0.307 0.152 21.0 R 0.70 0.24 o 691 0.37 Yes Yes
2019VB4 O C K 2019-11-19.27822 1.000E-05 03:12:17.710 1.500E-01 0.500 F -0.203 0.046 +20° 25' 42.80" 1.000E-01 0.500 F 0.307 -0.288 21.0 R 0.70 0.24 o 691 0.60 Yes Yes
2019VB4 O C K 2019-11-19.28183 1.000E-05 03:12:16.980 1.500E-01 0.500 F -0.203 -0.093 +20° 25' 58.50" 1.000E-01 0.500 F 0.307 0.092 21.6 R 0.70 0.84 o 691 0.27 Yes Yes
2019VH5 O C 2019-11-19.28656 1.000E-05 03:44:44.880 1.500E-01 0.500 F -0.361 -0.286 +12° 49' 09.70" 1.000E-01 0.500 F 0.300 -0.002 19.9 V 0.70 0.52 o 691 0.58 Yes Yes
2019VH5 O C 2019-11-19.29138 1.000E-05 03:44:43.480 1.500E-01 0.500 F -0.361 -0.070 +12° 49' 10.40" 1.000E-01 0.500 F 0.300 -0.187 19.8 V 0.70 0.42 o 691 0.40 Yes Yes
2019VH5 O C 2019-11-19.29619 1.000E-05 03:44:42.050 1.500E-01 0.500 F -0.361 -0.320 +12° 49' 11.40" 1.000E-01 0.500 F 0.300 -0.058 19.9 V 0.70 0.52 o 691 0.65 Yes Yes
2019UG7 O C 2019-11-19.29819 1.000E-05 04:14:43.280 1.500E-01 0.500 F -0.316 -0.241 +13° 43' 37.90" 1.000E-01 0.500 F 0.073 -0.241 20.4 V 0.70 0.03 o 691 0.68 Yes Yes
2019UG7 O C 2019-11-19.30439 1.000E-05 04:14:43.630 1.500E-01 0.500 F -0.316 -0.074 +13° 43' 30.20" 1.000E-01 0.500 F 0.073 -0.033 20.2 V 0.70 -0.17 o 691 0.16 Yes Yes
2019UG7 O C 2019-11-19.31059 1.000E-05 04:14:43.940 1.500E-01 0.500 F -0.316 -0.485 +13° 43' 23.40" 1.000E-01 0.500 F 0.073 1.085 19.7 V 0.70 -0.67 o 691 2.39 Yes Yes
2019SM O C 2019-11-19.34383 1.000E-05 02:39:21.860 1.500E-01 0.500 F -0.364 0.463 -15° 06' 10.80" 1.000E-01 0.500 F 0.163 0.060 19.7 V 0.70 -0.55 o 691 0.94 Yes Yes
2019SM O C 2019-11-19.35003 1.000E-05 02:39:22.470 1.500E-01 0.500 F -0.364 -0.029 -15° 06' 18.70" 1.000E-01 0.500 F 0.163 -0.041 20.3 V 0.70 0.05 o 691 0.10 Yes Yes
2019SM O C 2019-11-19.35624 1.000E-05 02:39:23.100 1.500E-01 0.500 F -0.364 -0.263 -15° 06' 26.40" 1.000E-01 0.500 F 0.163 0.058 20.3 V 0.70 0.05 o 691 0.54 Yes Yes
2019UR11 O C 2019-11-19.36051 1.000E-05 03:07:13.880 1.500E-01 0.500 F -0.286 -0.315 +00° 17' 07.20" 1.000E-01 0.500 F 0.286 -0.464 19.7 V 0.70 -0.31 o 691 1.13 Yes Yes
2019UR11 O C 2019-11-19.36578 1.000E-05 03:07:12.870 1.500E-01 0.500 F -0.286 -0.052 +00° 17' 19.20" 1.000E-01 0.500 F 0.286 -0.337 19.6 V 0.70 -0.41 o 691 0.68 Yes Yes
2019UR11 O C 2019-11-19.37106 1.000E-05 03:07:11.830 1.500E-01 0.500 F -0.286 -0.227 +00° 17' 31.30" 1.000E-01 0.500 F 0.286 -0.129 19.5 V 0.70 -0.51 o 691 0.52 Yes Yes
2019RN4 O C 2019-11-19.37400 1.000E-05 03:31:08.460 1.500E-01 0.500 F -0.315 -0.071 -01° 16' 36.40" 1.000E-01 0.500 F 0.200 0.228 19.6 V 0.70 0.14 o 691 0.48 Yes Yes
2019RN4 O C 2019-11-19.37927 1.000E-05 03:31:07.780 1.500E-01 0.500 F -0.315 -0.311 -01° 16' 19.30" 1.000E-01 0.500 F 0.200 0.382 19.5 V 0.70 0.04 o 691 0.99 Yes Yes
2019RN4 O C 2019-11-19.38454 1.000E-05 03:31:07.140 1.500E-01 0.500 F -0.315 0.040 -01° 16' 02.80" 1.000E-01 0.500 F 0.200 -0.063 19.7 V 0.70 0.24 o 691 0.15 Yes Yes
2019QT8 O C 2019-11-19.38705 1.000E-05 03:54:34.300 1.500E-01 0.500 F -0.218 0.078 -02° 43' 01.60" 1.000E-01 0.500 F 0.236 -0.062 19.0 V 0.70 0.43 o 691 0.20 Yes Yes
2019QT8 O C 2019-11-19.39186 1.000E-05 03:54:33.920 1.500E-01 0.500 F -0.218 -0.070 -02° 42' 43.70" 1.000E-01 0.500 F 0.236 0.104 18.7 V 0.70 0.13 o 691 0.25 Yes Yes
2019QT8 O C 2019-11-19.39667 1.000E-05 03:54:33.530 1.500E-01 0.500 F -0.218 -0.377 -02° 42' 26.20" 1.000E-01 0.500 F 0.236 -0.131 18.6 V 0.70 0.03 o 691 0.80 Yes Yes
2019VO1 O C K 2019-11-19.39938 1.000E-05 03:16:10.430 1.500E-01 0.500 F -0.255 -0.161 +21° 07' 57.70" 1.000E-01 0.500 F 0.305 -0.067 o 691 0.35 Yes No
2019VO1 O C K 2019-11-19.40058 1.000E-05 03:16:10.270 1.500E-01 0.500 F -0.255 0.410 +21° 07' 53.10" 1.000E-01 0.500 F 0.305 -0.065 o 691 0.84 Yes No
2019VB4 O C K 2019-11-24.19796 1.000E-05 03:00:46.280 1.500E-01 0.500 F -0.270 -0.332 +25° 30' 03.40" 1.000E-01 0.500 F 0.275 -0.061 21.4 R 0.70 0.03 o 691 0.71 Yes Yes
2019VB4 O C K 2019-11-24.20646 1.000E-05 03:00:44.940 1.500E-01 0.500 F -0.270 -0.083 +25° 30' 31.10" 1.000E-01 0.500 F 0.275 -0.361 21.6 R 0.70 0.23 o 691 0.80 Yes Yes
2019VL4 O C K 2019-11-24.25801 1.000E-05 02:30:34.560 1.500E-01 0.500 F -0.025 -0.070 +30° 07' 52.80" 1.000E-01 0.500 F 0.215 -0.215 19.4 R 0.70 0.53 o 691 0.45 Yes Yes
2019VL4 O C K 2019-11-24.26259 1.000E-05 02:30:32.790 1.500E-01 0.500 F -0.025 0.305 +30° 07' 45.10" 1.000E-01 0.500 F 0.215 -0.215 18.9 R 0.70 0.03 o 691 0.75 Yes Yes
2019VL4 O C K 2019-11-24.26717 1.000E-05 02:30:30.970 1.500E-01 0.500 F -0.025 0.034 +30° 07' 37.60" 1.000E-01 0.500 F 0.215 -0.003 19.1 R 0.70 0.23 o 691 0.07 Yes Yes
2019VO1 O C K 2019-11-24.32985 1.000E-05 03:02:36.490 1.500E-01 0.500 F -0.242 -0.197 +15° 17' 11.90" 1.000E-01 0.500 F 0.364 0.232 19.9 R 0.70 0.68 o 691 0.62 Yes Yes
2019VO1 O C K 2019-11-24.33397 1.000E-05 03:02:35.680 1.500E-01 0.500 F -0.242 -0.555 +15° 16' 52.20" 1.000E-01 0.500 F 0.364 0.281 o 691 1.26 Yes No
2019UX13 O C K 2019-11-24.34095 1.000E-05 05:36:20.090 1.500E-01 0.500 F -0.080 -0.011 -14° 13' 25.60" 1.000E-01 0.500 F 0.141 -0.509 20.8 R 0.70 -0.11 o 691 1.02 Yes Yes
2019UX13 O C K 2019-11-24.34970 1.000E-05 05:36:19.110 1.500E-01 0.500 F -0.080 -0.127 -14° 13' 28.50" 1.000E-01 0.500 F 0.141 0.339 20.9 R 0.70 -0.01 o 691 0.73 Yes Yes
2019UX13 O C K 2019-11-24.35844 1.000E-05 05:36:18.150 1.500E-01 0.500 F -0.080 0.039 -14° 13' 32.40" 1.000E-01 0.500 F 0.141 0.164 21.5 R 0.70 0.59 o 691 0.34 Yes Yes
2019WV O C 2019-11-24.36926 1.000E-05 05:52:56.110 1.500E-01 0.500 F 0.033 -0.236 +02° 31' 15.30" 1.000E-01 0.500 F 0.154 0.347 19.3 R 0.70 0.49 o 691 0.86 Yes Yes
2019WV O C 2019-11-24.37318 1.000E-05 05:52:53.810 1.500E-01 0.500 F 0.033 -0.245 +02° 31' 26.30" 1.000E-01 0.500 F 0.154 0.217 19.4 R 0.70 0.59 o 691 0.67 Yes Yes
2019WV O C 2019-11-24.38006 1.000E-05 05:52:49.780 1.500E-01 0.500 F 0.033 -0.189 +02° 31' 45.60" 1.000E-01 0.500 F 0.154 0.010 18.6 R 0.70 -0.21 o 691 0.39 Yes Yes
2019UL13 O C 2019-11-24.38453 1.000E-05 04:42:09.010 1.500E-01 0.500 F -0.036 0.062 +27° 25' 00.60" 1.000E-01 0.500 F 0.311 -0.186 19.2 R 0.70 -0.16 o 691 0.40 Yes Yes
2019UL13 O C 2019-11-24.39056 1.000E-05 04:42:07.300 1.500E-01 0.500 F -0.036 -0.289 +27° 25' 19.30" 1.000E-01 0.500 F 0.311 0.254 19.7 R 0.70 0.34 o 691 0.78 Yes Yes
2019UL13 O C 2019-11-24.39559 1.000E-05 04:42:05.880 1.500E-01 0.500 F -0.036 -0.505 +27° 25' 34.40" 1.000E-01 0.500 F 0.311 0.136 19.3 R 0.70 -0.06 o 691 1.06 Yes Yes
2019UO O C H 2019-11-25.07684 1.000E-05 23:35:30.990 1.500E-01 0.500 F -0.179 0.085 +19° 06' 29.20" 1.000E-01 0.500 F 0.306 -0.038 19.1 R 0.70 0.42 o 691 0.19 Yes Yes
2019UO O C H 2019-11-25.07851 1.000E-05 23:35:30.850 1.500E-01 0.500 F -0.179 -0.059 +19° 06' 27.70" 1.000E-01 0.500 F 0.306 -0.201 19.0 R 0.70 0.32 o 691 0.42 Yes Yes
2019UO O C H 2019-11-25.08018 1.000E-05 23:35:30.720 1.500E-01 0.500 F -0.179 -0.060 +19° 06' 26.70" 1.000E-01 0.500 F 0.306 0.138 19.1 R 0.70 0.42 o 691 0.30 Yes Yes
2019WL2 O C K 2019-11-25.18249 1.000E-05 03:40:51.440 1.500E-01 0.500 F -0.317 0.227 +14° 44' 45.10" 1.000E-01 0.500 F 0.200 -0.711 o 691 1.52 Yes No
2019WL2 O C K 2019-11-25.19206 1.000E-05 03:40:52.280 1.500E-01 0.500 F -0.317 -0.217 +14° 44' 53.90" 1.000E-01 0.500 F 0.200 -0.529 o 691 1.16 Yes No
2019WL2 O C K 2019-11-25.20164 1.000E-05 03:40:53.130 1.500E-01 0.500 F -0.317 -0.457 +14° 45' 02.60" 1.000E-01 0.500 F 0.200 -0.429 o 691 1.27 Yes No
2019WV1 O C K 2019-11-25.21184 1.000E-05 04:45:34.360 1.500E-01 0.500 F -0.218 0.549 +21° 27' 37.10" 1.000E-01 0.500 F 0.268 -0.488 o 691 1.52 Yes No
2019WV1 O C K 2019-11-25.21711 1.000E-05 04:45:33.130 1.500E-01 0.500 F -0.218 0.438 +21° 27' 50.70" 1.000E-01 0.500 F 0.268 -0.721 o 691 1.73 Yes No
2019WV1 O C K 2019-11-25.22238 1.000E-05 04:45:31.830 1.500E-01 0.500 F -0.218 -0.477 +21° 28' 04.30" 1.000E-01 0.500 F 0.268 -0.840 o 691 1.96 Yes No
2019UK13 O C K 2019-11-25.24112 1.000E-05 02:59:14.770 1.500E-01 0.500 F -0.183 0.199 +26° 12' 11.60" 1.000E-01 0.500 F 0.280 0.098 20.3 R 0.70 0.03 o 691 0.45 Yes Yes
2019UK13 O C K 2019-11-25.24731 1.000E-05 02:59:15.450 1.500E-01 0.500 F -0.183 -0.005 +26° 11' 55.80" 1.000E-01 0.500 F 0.280 0.052 o 691 0.11 Yes No
2019UK13 O C K 2019-11-25.25351 1.000E-05 02:59:16.170 1.500E-01 0.500 F -0.183 0.322 +26° 11' 39.90" 1.000E-01 0.500 F 0.280 -0.019 20.0 R 0.70 -0.27 o 691 0.66 Yes Yes
2019WG O C K 2019-11-25.26285 1.000E-05 02:47:21.950 1.500E-01 0.500 F -0.152 -0.311 +24° 10' 13.90" 1.000E-01 0.500 F 0.299 0.504 20.0 R 0.70 -0.26 o 691 1.25 Yes Yes
2019WG O C K 2019-11-25.26903 1.000E-05 02:47:24.530 1.500E-01 0.500 F -0.152 0.000 +24° 09' 12.00" 1.000E-01 0.500 F 0.299 -0.368 20.2 R 0.70 -0.06 o 691 0.78 Yes Yes
2010KH O C K 2019-11-27.09178 1.000E-05 22:54:21.410 1.500E-01 0.500 F -0.135 0.676 -28° 16' 35.30" 1.000E-01 0.500 F 0.340 -0.059 o 691 1.52 Yes No
2010KH O C K 2019-11-27.09801 1.000E-05 22:54:22.690 1.500E-01 0.500 F -0.135 0.081 -28° 16' 20.90" 1.000E-01 0.500 F 0.340 1.025 o 691 2.13 Yes No
2010KH O C K 2019-11-27.10421 1.000E-05 22:54:23.910 1.500E-01 0.500 F -0.135 -1.223 -28° 16' 06.20" 1.000E-01 0.500 F 0.340 2.467 o 691 5.40 No No
2019US6 O C K 2019-11-27.15410 1.000E-05 23:07:56.460 1.500E-01 0.500 F -0.097 -0.144 +12° 28' 21.40" 1.000E-01 0.500 F 0.321 0.395 o 691 0.87 Yes No
2019US6 O C K 2019-11-27.15993 1.000E-05 23:07:57.570 1.500E-01 0.500 F -0.097 0.016 +12° 28' 19.50" 1.000E-01 0.500 F 0.321 0.160 o 691 0.33 Yes No
2019US6 O C K 2019-11-27.16576 1.000E-05 23:07:58.660 1.500E-01 0.500 F -0.097 -0.125 +12° 28' 17.10" 1.000E-01 0.500 F 0.321 -0.571 o 691 1.20 Yes No
2019RN4 O C 2019-12-06.16815 1.000E-05 03:04:59.430 1.500E-01 0.612 F -0.249 -0.550 +12° 00' 52.10" 1.000E-01 0.612 F 0.325 -0.144 20.2 V 0.70 0.05 o 691 0.93 Yes Yes
2019RN4 O C K 2019-12-06.16815 1.000E-05 03:04:59.460 1.500E-01 0.612 F -0.249 -0.110 +12° 00' 52.20" 1.000E-01 0.612 F 0.325 -0.044 20.0 R 0.70 0.25 o 691 0.19 Yes Yes
2019RN4 O C 2019-12-06.17171 1.000E-05 03:04:59.240 1.500E-01 0.612 F -0.249 0.222 +12° 01' 00.40" 1.000E-01 0.612 F 0.325 -0.393 20.2 V 0.70 0.05 o 691 0.74 Yes Yes
2019RN4 O C 2019-12-06.17527 1.000E-05 03:04:58.960 1.500E-01 0.612 F -0.249 -0.324 +12° 01' 09.10" 1.000E-01 0.612 F 0.325 -0.239 20.1 V 0.70 -0.05 o 691 0.66 Yes Yes
2019RN4 O C K 2019-12-06.18155 1.000E-05 03:04:58.550 1.500E-01 0.612 F -0.249 -0.053 +12° 01' 24.50" 1.000E-01 0.612 F 0.325 0.090 20.2 R 0.70 0.44 o 691 0.17 Yes Yes
2019RN4 O C K 2019-12-06.19496 1.000E-05 03:04:57.640 1.500E-01 0.612 F -0.249 0.033 +12° 01' 56.60" 1.000E-01 0.612 F 0.325 0.031 20.1 R 0.70 0.34 o 691 0.07 Yes Yes
2019QT8 O C 2019-12-06.21534 1.000E-05 03:37:38.790 1.500E-01 0.500 F -0.330 -0.151 +13° 47' 03.80" 1.000E-01 0.500 F 0.220 -0.112 19.6 V 0.70 0.74 o 691 0.38 Yes Yes
2019UK13 O C K 2019-12-06.21686 1.000E-05 03:23:13.290 1.500E-01 0.500 F -0.231 -0.030 +19° 35' 40.30" 1.000E-01 0.500 F 0.412 -0.027 21.0 R 0.70 0.11 o 691 0.08 Yes Yes
2019QT8 O C 2019-12-06.22992 1.000E-05 03:37:38.040 1.500E-01 0.500 F -0.330 -0.192 +13° 47' 49.50" 1.000E-01 0.500 F 0.220 -0.295 19.4 V 0.70 0.54 o 691 0.71 Yes Yes
2019UK13 O C K 2019-12-06.23144 1.000E-05 03:23:14.590 1.500E-01 0.500 F -0.231 -0.231 +19° 35' 14.80" 1.000E-01 0.500 F 0.412 -0.283 21.2 R 0.70 0.31 o 691 0.74 Yes Yes
2019QT8 O C 2019-12-06.24454 1.000E-05 03:37:37.280 1.500E-01 0.500 F -0.330 -0.335 +13° 48' 35.50" 1.000E-01 0.500 F 0.220 -0.255 19.0 V 0.70 0.14 o 691 0.85 Yes Yes
2019UK13 O C K 2019-12-06.24606 1.000E-05 03:23:15.880 1.500E-01 0.500 F -0.231 -0.579 +19° 34' 49.50" 1.000E-01 0.500 F 0.412 -0.109 20.7 R 0.70 -0.19 o 691 1.19 Yes Yes
2019XB2 O C K 2019-12-06.29030 1.000E-05 05:13:24.200 1.500E-01 0.500 F -0.085 0.202 -10° 16' 06.80" 1.000E-01 0.500 F 0.121 -0.206 o 691 0.58 Yes No
2019XB2 O C K 2019-12-06.31983 1.000E-05 05:13:21.640 1.500E-01 0.500 F -0.085 -0.164 -10° 17' 54.10" 1.000E-01 0.500 F 0.121 -0.248 21.8 R 0.70 1.24 o 691 0.60 Yes Yes
2019WV O C K 2019-12-06.35587 1.000E-05 04:57:57.110 1.500E-01 0.500 F -0.078 -0.089 +07° 58' 26.40" 1.000E-01 0.500 F 0.153 -0.144 19.7 R 0.70 -0.06 o 691 0.35 Yes Yes
2019XB3 O C K 2019-12-06.36615 1.000E-05 04:55:08.790 1.500E-01 0.500 F -0.331 -0.105 +21° 47' 05.20" 1.000E-01 0.500 F 0.233 0.030 19.5 R 0.70 0.27 o 691 0.23 Yes Yes
2019WV O C K 2019-12-06.37186 1.000E-05 04:57:54.100 1.500E-01 0.500 F -0.078 -0.227 +07° 58' 42.30" 1.000E-01 0.500 F 0.153 0.147 o 691 0.55 Yes No
2019XB3 O C K 2019-12-06.38214 1.000E-05 04:55:01.340 1.500E-01 0.500 F -0.331 -0.284 +21° 48' 18.00" 1.000E-01 0.500 F 0.233 -0.112 19.6 R 0.70 0.38 o 691 0.62 Yes Yes
2019WV O C K 2019-12-06.38783 1.000E-05 04:57:51.150 1.500E-01 0.500 F -0.078 -0.001 +07° 58' 57.30" 1.000E-01 0.500 F 0.153 -0.291 20.3 R 0.70 0.53 o 691 0.59 Yes Yes
2019XB3 O C K 2019-12-06.39810 1.000E-05 04:54:53.920 1.500E-01 0.500 F -0.331 -0.295 +21° 49' 30.80" 1.000E-01 0.500 F 0.233 -0.034 19.5 R 0.70 0.28 o 691 0.61 Yes Yes
2019XV1 O C K 2019-12-06.40953 1.000E-05 08:11:43.480 1.500E-01 0.500 F 0.056 0.018 +06° 24' 21.60" 1.000E-01 0.500 F 0.017 0.129 20.4 R 0.70 -0.66 o 691 0.27 Yes Yes
2019XV1 O C K 2019-12-06.43364 1.000E-05 08:11:38.790 1.500E-01 0.500 F 0.056 -0.304 +06° 24' 02.80" 1.000E-01 0.500 F 0.017 0.155 o 691 0.69 Yes No
2019XE1 O C K 2019-12-06.44418 1.000E-05 11:26:02.240 1.500E-01 0.500 F 0.227 -0.332 +24° 19' 18.60" 1.000E-01 0.500 F 0.261 0.019 20.6 R 0.70 0.46 o 691 0.68 Yes Yes
2019XE1 O C K 2019-12-06.45979 1.000E-05 11:26:06.800 1.500E-01 0.500 F 0.227 0.074 +24° 18' 00.80" 1.000E-01 0.500 F 0.261 0.188 20.1 R 0.70 -0.04 o 691 0.41 Yes Yes
2019XE1 O C K 2019-12-06.47534 1.000E-05 11:26:11.280 1.500E-01 0.500 F 0.227 -0.286 +24° 16' 43.30" 1.000E-01 0.500 F 0.261 0.460 20.4 R 0.70 0.26 o 691 1.10 Yes Yes
2019WC5 O C H 2019-12-07.40679 1.000E-05 06:00:03.440 1.500E-01 0.500 F -0.085 -0.322 -01° 10' 53.60" 1.000E-01 0.500 F 0.042 -0.635 21.1 R 0.70 0.14 o 691 1.43 Yes Yes
2019XR1 O C K 2019-12-07.40912 1.000E-05 07:12:37.160 1.500E-01 0.500 F -0.104 0.053 +28° 28' 21.90" 1.000E-01 0.500 F 0.228 -0.072 18.0 R 0.70 -0.24 o 691 0.18 Yes Yes
2019WC5 O C H 2019-12-07.41242 1.000E-05 06:00:03.570 1.500E-01 0.500 F -0.067 -0.300 -01° 10' 57.00" 1.000E-01 0.500 F -0.060 -0.174 21.5 R 0.70 0.54 o 691 0.69 Yes Yes
2019XR1 O C K 2019-12-07.41487 1.000E-05 07:12:34.540 1.500E-01 0.500 F -0.104 -0.014 +28° 26' 47.80" 1.000E-01 0.500 F 0.228 -0.161 18.0 R 0.70 -0.24 o 691 0.33 Yes Yes
2019WC5 O C H 2019-12-07.41827 1.000E-05 06:00:03.720 1.500E-01 0.500 F -0.067 -0.047 -01° 11' 00.80" 1.000E-01 0.500 F -0.060 -0.068 22.0 R 0.70 1.04 o 691 0.17 Yes Yes
2019WV O C K 2019-12-07.45863 1.000E-05 04:55:20.510 1.500E-01 0.500 F -0.013 -0.042 +08° 16' 22.90" 1.000E-01 0.500 F 0.082 0.119 20.0 R 0.70 0.14 o 691 0.26 Yes Yes
2019WV O C K 2019-12-07.46165 1.000E-05 04:55:20.030 1.500E-01 0.500 F -0.013 -0.172 +08° 16' 25.60" 1.000E-01 0.500 F 0.082 0.166 19.8 R 0.70 -0.06 o 691 0.49 Yes Yes
2019WV O C K 2019-12-07.46465 1.000E-05 04:55:19.580 1.500E-01 0.500 F -0.013 0.065 +08° 16' 28.10" 1.000E-01 0.500 F 0.082 0.034 20.1 R 0.70 0.24 o 691 0.15 Yes Yes
2006YU1 O C K 2019-12-07.48056 1.000E-05 09:19:07.210 1.500E-01 0.500 F 0.109 -0.005 +24° 21' 16.90" 1.000E-01 0.500 F 0.440 0.087 21.5 R 0.70 0.60 o 691 0.17 Yes Yes
2006YU1 O C K 2019-12-07.49821 1.000E-05 09:19:10.790 1.500E-01 0.500 F 0.109 -0.713 +24° 20' 43.00" 1.000E-01 0.500 F 0.440 -0.658 20.9 R 0.70 0.00 o 691 1.95 Yes Yes
2006YU1 O C K 2019-12-07.51586 1.000E-05 09:19:14.460 1.500E-01 0.500 F 0.109 -0.200 +24° 20' 10.50" 1.000E-01 0.500 F 0.440 0.099 21.5 R 0.70 0.60 o 691 0.45 Yes Yes
2019XA3 O C K 2019-12-14.06439 1.000E-05 22:18:56.930 1.500E-01 0.500 F -0.076 0.057 -02° 59' 24.90" 1.000E-01 0.500 F 0.200 -0.183 21.2 R 0.70 1.00 o 691 0.39 Yes Yes
2019UT9 O C K 2019-12-14.06973 1.000E-05 22:35:12.630 1.500E-01 0.500 F -0.057 0.395 -26° 52' 38.40" 1.000E-01 0.500 F 0.371 0.125 20.5 R 0.70 0.84 o 691 0.84 Yes Yes
2019UT9 O C K 2019-12-14.07796 1.000E-05 22:35:12.930 1.500E-01 0.500 F -0.057 0.346 -26° 52' 10.70" 1.000E-01 0.500 F 0.371 0.230 20.8 R 0.70 1.14 o 691 0.84 Yes Yes
2019XA3 O C K 2019-12-14.08088 1.000E-05 22:19:00.020 1.500E-01 0.500 F -0.076 0.459 -02° 58' 19.70" 1.000E-01 0.500 F 0.200 0.228 20.5 R 0.70 0.30 o 691 1.04 Yes Yes
2019UT9 O C K 2019-12-14.08620 1.000E-05 22:35:13.240 1.500E-01 0.500 F -0.057 0.416 -26° 51' 43.10" 1.000E-01 0.500 F 0.371 0.182 20.2 R 0.70 0.54 o 691 0.92 Yes Yes
2019UO O C 2019-12-14.09270 1.000E-05 23:22:45.550 1.500E-01 0.500 F -0.263 -0.256 +13° 40' 04.10" 1.000E-01 0.500 F 0.239 0.630 19.2 V 0.70 0.54 o 691 1.37 Yes Yes
2016AF193 O C K 2019-12-14.09457 1.000E-05 00:00:22.850 1.500E-01 0.500 F -0.179 0.025 -00° 01' 54.50" 1.000E-01 0.500 F 0.297 -0.002 20.3 R 0.70 0.43 o 691 0.05 Yes Yes
2019OA5 O C 2019-12-14.09733 1.000E-05 22:52:05.640 1.500E-01 0.500 F -0.164 0.077 +16° 08' 21.80" 1.000E-01 0.500 F 0.334 -0.225 19.5 V 0.70 -0.69 o 691 0.48 Yes Yes
2019US6 O C K 2019-12-14.10038 1.000E-05 00:07:09.700 1.500E-01 0.500 F -0.135 -0.113 +11° 36' 24.90" 1.000E-01 0.500 F 0.322 0.209 21.9 R 0.70 0.32 o 691 0.49 Yes Yes
2019UO O C 2019-12-14.10937 1.000E-05 23:22:44.810 1.500E-01 0.500 F -0.263 0.049 +13° 39' 39.10" 1.000E-01 0.500 F 0.239 -0.080 19.6 V 0.70 0.94 o 691 0.19 Yes Yes
2016AF193 O C K 2019-12-14.11102 1.000E-05 00:00:32.100 1.500E-01 0.500 F -0.179 -0.194 -00° 01' 39.40" 1.000E-01 0.500 F 0.297 0.072 20.1 R 0.70 0.23 o 691 0.42 Yes Yes
2019OA5 O C 2019-12-14.11484 1.000E-05 22:52:12.800 1.500E-01 0.500 F -0.164 -0.201 +16° 08' 04.30" 1.000E-01 0.500 F 0.334 0.260 19.7 V 0.70 -0.49 o 691 0.67 Yes Yes
2019US6 O C K 2019-12-14.11626 1.000E-05 00:07:13.160 1.500E-01 0.500 F -0.135 0.243 +11° 36' 23.90" 1.000E-01 0.500 F 0.322 0.722 o 691 1.57 Yes No
2019UO O C 2019-12-14.12525 1.000E-05 23:22:44.080 1.500E-01 0.500 F -0.263 -0.191 +13° 39' 15.90" 1.000E-01 0.500 F 0.239 -0.004 19.9 V 0.70 1.24 o 691 0.38 Yes Yes
2016AF193 O C K 2019-12-14.12681 1.000E-05 00:00:40.980 1.500E-01 0.500 F -0.179 -0.372 -00° 01' 25.20" 1.000E-01 0.500 F 0.297 -0.141 20.1 R 0.70 0.23 o 691 0.81 Yes Yes
2019OA5 O C 2019-12-14.13055 1.000E-05 22:52:19.240 1.500E-01 0.500 F -0.164 -0.287 +16° 07' 47.80" 1.000E-01 0.500 F 0.334 -0.062 19.7 V 0.70 -0.49 o 691 0.60 Yes Yes
2019US6 O C K 2019-12-14.13194 1.000E-05 00:07:16.510 1.500E-01 0.500 F -0.135 -0.408 +11° 36' 21.90" 1.000E-01 0.500 F 0.322 0.236 o 691 0.97 Yes No
2016CQ195 O C K 2019-12-14.15027 1.000E-05 21:29:25.540 1.500E-01 0.500 F 0.011 -0.273 +15° 20' 03.00" 1.000E-01 0.500 F 0.287 0.081 18.9 R 0.70 -1.26 o 691 0.59 Yes Yes
2016CQ195 O C K 2019-12-14.16035 1.000E-05 21:29:28.240 1.500E-01 0.500 F 0.011 0.095 +15° 20' 26.30" 1.000E-01 0.500 F 0.287 0.377 20.3 R 0.70 0.13 o 691 0.83 Yes Yes
2016CQ195 O C K 2019-12-14.17044 1.000E-05 21:29:30.850 1.500E-01 0.500 F 0.011 -0.901 +15° 20' 48.10" 1.000E-01 0.500 F 0.287 -0.841 20.1 R 0.70 -0.07 o 691 2.64 Yes Yes
2019WT4 O C K 2019-12-14.18394 1.000E-05 04:25:54.050 1.500E-01 0.500 F -0.432 -0.040 -06° 11' 27.80" 1.000E-01 0.500 F 0.021 0.059 19.5 R 0.70 -0.12 o 691 0.14 Yes Yes
2019WT4 O C K 2019-12-14.20309 1.000E-05 04:25:55.050 1.500E-01 0.500 F -0.432 0.026 -06° 13' 52.20" 1.000E-01 0.500 F 0.021 0.598 18.6 R 0.70 -1.02 o 691 1.23 Yes Yes
2019WT4 O C K 2019-12-14.21372 1.000E-05 04:25:55.580 1.500E-01 0.500 F -0.432 -0.096 -06° 15' 13.00" 1.000E-01 0.500 F 0.021 0.109 19.3 R 0.70 -0.32 o 691 0.30 Yes Yes
2019XJ3 O C K 2019-12-14.21627 1.000E-05 04:49:11.430 1.500E-01 0.500 F -0.106 -0.257 -29° 38' 20.10" 1.000E-01 0.500 F 0.114 0.106 19.1 R 0.70 0.07 o 691 0.57 Yes Yes
2019XJ3 O C K 2019-12-14.22478 1.000E-05 04:49:09.290 1.500E-01 0.500 F -0.106 -0.117 -29° 37' 00.40" 1.000E-01 0.500 F 0.114 -0.020 19.2 R 0.70 0.17 o 691 0.24 Yes Yes
2019XJ3 O C K 2019-12-14.23329 1.000E-05 04:49:07.140 1.500E-01 0.500 F -0.106 -0.107 -29° 35' 40.70" 1.000E-01 0.500 F 0.114 -0.155 19.1 R 0.70 0.07 o 691 0.38 Yes Yes
2019VF6 O C 2019-12-14.24260 1.000E-05 04:51:06.050 1.500E-01 0.500 F -0.262 -0.504 -08° 18' 26.50" 1.000E-01 0.500 F 0.227 -0.097 19.8 V 0.70 0.12 o 691 1.04 Yes Yes
2019VF6 O C 2019-12-14.26008 1.000E-05 04:51:01.270 1.500E-01 0.500 F -0.262 0.047 -08° 18' 22.70" 1.000E-01 0.500 F 0.227 -0.041 19.7 V 0.70 0.02 o 691 0.13 Yes Yes
2019VF6 O C 2019-12-14.27611 1.000E-05 04:50:56.830 1.500E-01 0.500 F -0.262 -0.180 -08° 18' 19.10" 1.000E-01 0.500 F 0.227 0.055 19.7 V 0.70 0.02 o 691 0.38 Yes Yes
2019SH6 O C 2019-12-14.28136 1.000E-05 07:48:29.780 1.500E-01 0.500 F -0.123 -0.107 -03° 37' 33.40" 1.000E-01 0.500 F 0.058 -0.071 18.1 V 0.70 0.58 o 691 0.26 Yes Yes
2019SH6 O C 2019-12-14.29212 1.000E-05 07:48:34.150 1.500E-01 0.500 F -0.123 -0.012 -03° 37' 21.80" 1.000E-01 0.500 F 0.058 -0.097 17.7 V 0.70 0.18 o 691 0.20 Yes Yes
2019SH6 O C 2019-12-14.30174 1.000E-05 07:48:38.040 1.500E-01 0.500 F -0.123 -0.067 -03° 37' 11.40" 1.000E-01 0.500 F 0.058 -0.113 17.7 V 0.70 0.18 o 691 0.26 Yes Yes
2019XA3 O C K 2019-12-15.06429 1.000E-05 22:22:07.020 1.500E-01 0.500 F -0.035 -0.298 -01° 53' 55.50" 1.000E-01 0.500 F 0.400 -0.364 20.1 R 0.70 -0.10 o 691 0.96 Yes Yes
2019XA3 O C K 2019-12-15.07420 1.000E-05 22:22:08.860 1.500E-01 0.500 F -0.035 -0.354 -01° 53' 15.70" 1.000E-01 0.500 F 0.400 0.467 20.2 R 0.70 0.00 o 691 1.18 Yes Yes
2019XA3 O C K 2019-12-15.08408 1.000E-05 22:22:10.700 1.500E-01 0.500 F -0.035 -0.342 -01° 52' 37.60" 1.000E-01 0.500 F 0.400 -0.286 21.0 R 0.70 0.80 o 691 0.91 Yes Yes
Geographos O C 2019-12-15.09510 1.000E-05 23:19:54.990 1.500E-01 0.500 F -0.258 -0.384 +13° 22' 18.40" 1.000E-01 0.500 F 0.297 0.161 18.0 V 0.70 0.01 o 691 0.83 Yes Yes
2019UO O C H 2019-12-15.09510 1.000E-05 23:22:20.660 1.500E-01 0.500 F -0.263 0.023 +13° 15' 22.30" 1.000E-01 0.500 F 0.239 -0.166 19.3 R 0.70 1.07 o 691 0.34 Yes Yes
2001VC2 O C K 2019-12-15.09683 1.000E-05 23:35:22.030 1.500E-01 0.500 F -0.068 -0.963 -08° 25' 09.70" 1.000E-01 0.500 F 0.200 -0.753 22.2 R 0.70 0.50 o 691 2.45 Yes Yes
2019UO O C H 2019-12-15.10805 1.000E-05 23:22:20.070 1.500E-01 0.500 F -0.263 0.108 +13° 15' 02.50" 1.000E-01 0.500 F 0.239 0.034 19.3 R 0.70 1.07 o 691 0.23 Yes Yes
Geographos O C 2019-12-15.10805 1.000E-05 23:19:56.560 1.500E-01 0.500 F -0.258 -0.032 +13° 22' 24.70" 1.000E-01 0.500 F 0.297 -0.104 17.8 V 0.70 -0.19 o 691 0.22 Yes Yes
2001VC2 O C K 2019-12-15.11521 1.000E-05 23:35:23.780 1.500E-01 0.500 F -0.068 -0.502 -08° 24' 25.80" 1.000E-01 0.500 F 0.200 -0.920 22.0 R 0.70 0.30 o 691 2.10 Yes Yes
2019UO O C H 2019-12-15.12091 1.000E-05 23:22:19.490 1.500E-01 0.500 F -0.263 0.166 +13° 14' 42.60" 1.000E-01 0.500 F 0.239 0.085 18.8 R 0.70 0.57 o 691 0.37 Yes Yes
Geographos O C 2019-12-15.12091 1.000E-05 23:19:58.090 1.500E-01 0.500 F -0.258 -0.123 +13° 22' 31.30" 1.000E-01 0.500 F 0.297 -0.014 17.6 V 0.70 -0.39 o 691 0.25 Yes Yes
2019SF2 O C K 2019-12-15.16283 1.000E-05 00:35:00.080 1.500E-01 0.500 F -0.229 -0.061 +19° 01' 18.60" 1.000E-01 0.500 F 0.230 -0.161 22.2 R 0.70 1.24 o 691 0.35 Yes Yes
2019SF2 O C K 2019-12-15.17448 1.000E-05 00:35:03.530 1.500E-01 0.500 F -0.229 0.130 +19° 01' 25.20" 1.000E-01 0.500 F 0.230 -0.373 21.2 R 0.70 0.24 o 691 0.80 Yes Yes
2019SF2 O C K 2019-12-15.18615 1.000E-05 00:35:07.030 1.500E-01 0.500 F -0.229 0.831 +19° 01' 31.80" 1.000E-01 0.500 F 0.230 -0.520 o 691 2.01 Yes No
2019WC6 O C K 2019-12-15.21192 1.000E-05 02:50:31.360 1.500E-01 0.500 F -0.169 0.284 +11° 36' 26.70" 1.000E-01 0.500 F 0.233 0.127 20.3 R 0.70 0.47 o 691 0.64 Yes Yes
2019XJ3 O C K 2019-12-15.22010 1.000E-05 04:45:20.520 1.500E-01 0.500 F -0.057 -0.375 -27° 03' 42.00" 1.000E-01 0.500 F 0.106 1.286 19.3 R 0.70 0.25 o 691 2.78 Yes Yes
2019WC6 O C K 2019-12-15.22521 1.000E-05 02:50:31.630 1.500E-01 0.500 F -0.169 0.253 +11° 38' 01.90" 1.000E-01 0.500 F 0.233 0.262 20.3 R 0.70 0.47 o 691 0.75 Yes Yes
2019WC6 O C K 2019-12-15.23877 1.000E-05 02:50:31.900 1.500E-01 0.500 F -0.227 0.139 +11° 39' 38.60" 1.000E-01 0.500 F 0.302 0.001 20.3 R 0.70 0.47 o 691 0.29 Yes Yes
2019XJ3 O C K 2019-12-15.24737 1.000E-05 04:45:14.270 1.500E-01 0.500 F -0.057 -0.312 -26° 59' 35.70" 1.000E-01 0.500 F 0.106 0.930 19.4 R 0.70 0.35 o 691 2.03 Yes Yes
2019WO4 O C K 2019-12-15.25274 1.000E-05 03:21:36.610 1.500E-01 0.500 F -0.302 0.060 +13° 14' 04.20" 1.000E-01 0.500 F 0.375 0.041 21.7 R 0.70 0.06 o 691 0.15 Yes Yes
2019WO4 O C K 2019-12-15.27024 1.000E-05 03:21:33.100 1.500E-01 0.500 F -0.302 -0.085 +13° 13' 41.80" 1.000E-01 0.500 F 0.375 -0.241 o 691 0.51 Yes No
2019WO4 O C K 2019-12-15.28772 1.000E-05 03:21:29.620 1.500E-01 0.500 F -0.302 0.019 +13° 13' 19.50" 1.000E-01 0.500 F 0.375 -0.358 21.7 R 0.70 0.06 o 691 0.72 Yes Yes
2019WR4 O C K 2019-12-15.30659 1.000E-05 05:03:08.490 1.500E-01 0.500 F -0.175 0.143 +16° 14' 24.90" 1.000E-01 0.500 F 0.149 0.451 20.2 R 0.70 0.28 o 691 0.96 Yes Yes
2019WR4 O C K 2019-12-15.31367 1.000E-05 05:03:10.850 1.500E-01 0.500 F -0.175 -0.239 +16° 14' 30.20" 1.000E-01 0.500 F 0.149 0.242 20.5 R 0.70 0.58 o 691 0.69 Yes Yes
2019WR4 O C K 2019-12-15.32075 1.000E-05 05:03:13.260 1.500E-01 0.500 F -0.175 0.032 +16° 14' 35.30" 1.000E-01 0.500 F 0.149 -0.091 o 691 0.20 Yes No
2019WC5 O C K 2019-12-15.33053 1.000E-05 06:04:49.030 1.500E-01 0.500 F -0.048 -0.071 -02° 38' 39.70" 1.000E-01 0.500 F -0.103 -0.072 20.7 R 0.70 0.47 o 691 0.20 Yes Yes

[1-200] [201-400] [401-600] [601-800] [801-1000] [1001-1200] [1201-1400] [1401-1600] [1601-1800] [1801-2000] [2001-2200] [2201-2400] [2401-2600] [2601-2800] [2801-3000] [3001-3200] [3201-3400] [3401-3600] [3601-3800] [3801-4000] [4001-4200] [4201-4400] [4401-4600] [4601-4800] [4801-5000] [5001-5200] [5201-5400] [5401-5600] [5601-5800] [5801-6000] [6001-6200] [6201-6400] [6401-6600] [6601-6800] [6801-7000] [7001-7200] [7201-7400] [7401-7600] [7601-7800] [7801-8000] [8001-8200] [8201-8400] [8401-8600] [8601-8800] [8801-9000] [9001-9200] [9201-9400] [9401-9600] [9601-9800] [9801-10000] [10001-10200] [10201-10400] [10401-10600] [10601-10800] [10801-11000] [11001-11200] [11201-11400] [11401-11600] [11601-11800] [11801-12000] [12001-12200] [12201-12400] [12401-12600] [12601-12800] [12801-13000] [13001-13200] [13201-13400] [13401-13600] [13601-13800] [13801-14000] [14001-14200] [14201-14400] [14401-14600] [14601-14800] [14801-15000] [15001-15200] [15201-15400] [15401-15600] [15601-15800] [15801-16000] [16001-16200] [16201-16400] [16401-16600] [16601-16800] [16801-17000] [17001-17200] [17201-17400] [17401-17600] [17601-17800] [17801-18000] [18001-18200] [18201-18400] [18401-18600] [18601-18800] [18801-19000] [19001-19200] [19201-19400] [19401-19600] [19601-19800] [19801-20000] [20001-20200] [20201-20400] [20401-20600] [20601-20800] [20801-21000] [21001-21200] [21201-21400] [21401-21600] [21601-21800] [21801-22000] [22001-22200] [22201-22400] [22401-22600] [22601-22800] [22801-23000] [23001-23200] [23201-23400] [23401-23600] [23601-23800] [23801-24000] [24001-24200] [24201-24400] [24401-24600] [24601-24800] [24801-25000] [25001-25200] [25201-25400] [25401-25600] [25601-25800] [25801-26000] [26001-26200] [26201-26400] [26401-26600] [26601-26800] [26801-27000] [27001-27200] [27201-27400] [27401-27600] [27601-27800] [27801-28000] [28001-28200] [28201-28400] [28401-28600] [28601-28800] [28801-29000] [29001-29200] [29201-29400] [29401-29600] [29601-29800] [29801-30000] [30001-30200] [30201-30400] [30401-30600] [30601-30800] [30801-31000] [31001-31200] [31201-31400] [31401-31600] [31601-31800] [31801-32000] [32001-32200] [32201-32400] [32401-32600] [32601-32800] [32801-33000] [33001-33200] [33201-33400] [33401-33600] [33601-33800] [33801-34000] [34001-34200] [34201-34400] [34401-34600] [34601-34800] [34801-35000] [35001-35200] [35201-35400] [35401-35600] [35601-35800] [35801-36000] [36001-36200] [36201-36400] [36401-36600] [36601-36800] [36801-37000] [37001-37200] [37201-37400] [37401-37600] [37601-37800] [37801-38000] [38001-38200] [38201-38400] [38401-38600] [38601-38800] [38801-39000] [39001-39200] [39201-39400] [39401-39600] [39601-39800] [39801-40000] [40001-40200] [40201-40400] [40401-40600] [40601-40800] [40801-41000] [41001-41200] [41201-41400] [41401-41600] [41601-41800] [41801-42000] [42001-42200] [42201-42400] [42401-42600] [42601-42800] [42801-43000] [43001-43200] [43201-43400] [43401-43600] [43601-43800] [43801-44000] [44001-44200] [44201-44400] [44401-44600] [44601-44800] [44801-45000] [45001-45200] [45201-45400] [45401-45600] [45601-45800] [45801-46000] [46001-46200] [46201-46400] [46401-46600] [46601-46800] [46801-47000] [47001-47200] [47201-47400] [47401-47600] [47601-47800] [47801-48000] [48001-48200] [48201-48400] [48401-48600] [48601-48800] [48801-49000] [49001-49200] [49201-49400] [49401-49600] [49601-49800] [49801-50000] [50001-50200] [50201-50388]